sensor_id;sensor_type;location;lat;lon;timestamp;P1;durP1;ratioP1;P2;durP2;ratioP2
16304;SDS011;8261;47.678;-122.174;2022-09-12T00:01:44;33.33;;;24.40;;
16304;SDS011;8261;47.678;-122.174;2022-09-12T00:04:18;30.53;;;25.20;;
16304;SDS011;8261;47.678;-122.174;2022-09-12T00:06:51;33.50;;;25.40;;
16304;SDS011;8261;47.678;-122.174;2022-09-12T00:10:00;29.07;;;25.27;;
16304;SDS011;8261;47.678;-122.174;2022-09-12T00:12:33;31.37;;;24.90;;
16304;SDS011;8261;47.678;-122.174;2022-09-12T00:15:31;31.67;;;25.23;;
16304;SDS011;8261;47.678;-122.174;2022-09-12T00:18:08;31.20;;;24.77;;
16304;SDS011;8261;47.678;-122.174;2022-09-12T00:20:50;31.60;;;24.83;;
16304;SDS011;8261;47.678;-122.174;2022-09-12T00:23:46;34.20;;;27.17;;
16304;SDS011;8261;47.678;-122.174;2022-09-12T00:26:22;33.83;;;26.10;;
16304;SDS011;8261;47.678;-122.174;2022-09-12T00:28:56;31.43;;;26.47;;
16304;SDS011;8261;47.678;-122.174;2022-09-12T00:31:51;37.50;;;27.03;;
16304;SDS011;8261;47.678;-122.174;2022-09-12T00:34:48;33.93;;;26.80;;
16304;SDS011;8261;47.678;-122.174;2022-09-12T00:37:36;34.50;;;27.37;;
16304;SDS011;8261;47.678;-122.174;2022-09-12T00:40:07;35.83;;;27.20;;
16304;SDS011;8261;47.678;-122.174;2022-09-12T00:42:46;37.17;;;27.63;;
16304;SDS011;8261;47.678;-122.174;2022-09-12T00:45:18;36.07;;;27.63;;
16304;SDS011;8261;47.678;-122.174;2022-09-12T00:47:53;35.00;;;27.07;;
16304;SDS011;8261;47.678;-122.174;2022-09-12T00:50:27;35.03;;;27.70;;
16304;SDS011;8261;47.678;-122.174;2022-09-12T00:58:54;31.73;;;27.60;;
16304;SDS011;8261;47.678;-122.174;2022-09-12T01:01:28;33.67;;;28.37;;
16304;SDS011;8261;47.678;-122.174;2022-09-12T01:04:01;34.20;;;28.27;;
16304;SDS011;8261;47.678;-122.174;2022-09-12T01:06:33;33.60;;;27.30;;
16304;SDS011;8261;47.678;-122.174;2022-09-12T01:09:09;35.43;;;28.47;;
16304;SDS011;8261;47.678;-122.174;2022-09-12T01:12:11;31.90;;;26.97;;
16304;SDS011;8261;47.678;-122.174;2022-09-12T01:14:55;32.47;;;27.63;;
16304;SDS011;8261;47.678;-122.174;2022-09-12T01:17:57;34.67;;;26.77;;
16304;SDS011;8261;47.678;-122.174;2022-09-12T01:20:53;36.27;;;25.63;;
16304;SDS011;8261;47.678;-122.174;2022-09-12T01:23:47;37.43;;;27.10;;
16304;SDS011;8261;47.678;-122.174;2022-09-12T01:26:58;33.80;;;26.10;;
16304;SDS011;8261;47.678;-122.174;2022-09-12T01:33:26;35.43;;;25.90;;
16304;SDS011;8261;47.678;-122.174;2022-09-12T01:36:20;30.73;;;24.63;;
16304;SDS011;8261;47.678;-122.174;2022-09-12T01:39:02;33.83;;;24.07;;
16304;SDS011;8261;47.678;-122.174;2022-09-12T01:41:39;32.93;;;24.73;;
16304;SDS011;8261;47.678;-122.174;2022-09-12T01:44:22;27.30;;;23.90;;
16304;SDS011;8261;47.678;-122.174;2022-09-12T01:47:04;34.63;;;24.90;;
16304;SDS011;8261;47.678;-122.174;2022-09-12T01:49:59;29.37;;;24.30;;
16304;SDS011;8261;47.678;-122.174;2022-09-12T01:52:40;29.97;;;23.30;;
16304;SDS011;8261;47.678;-122.174;2022-09-12T01:55:45;29.87;;;23.77;;
16304;SDS011;8261;47.678;-122.174;2022-09-12T01:58:25;33.30;;;24.13;;
16304;SDS011;8261;47.678;-122.174;2022-09-12T02:01:05;36.50;;;24.80;;
16304;SDS011;8261;47.678;-122.174;2022-09-12T02:03:54;31.97;;;23.93;;
16304;SDS011;8261;47.678;-122.174;2022-09-12T02:09:39;31.60;;;23.80;;
16304;SDS011;8261;47.678;-122.174;2022-09-12T02:12:30;31.23;;;24.43;;
16304;SDS011;8261;47.678;-122.174;2022-09-12T02:15:25;27.87;;;23.40;;
16304;SDS011;8261;47.678;-122.174;2022-09-12T02:18:04;33.93;;;23.53;;
16304;SDS011;8261;47.678;-122.174;2022-09-12T02:20:50;32.50;;;22.90;;
16304;SDS011;8261;47.678;-122.174;2022-09-12T02:23:31;31.77;;;22.93;;
16304;SDS011;8261;47.678;-122.174;2022-09-12T02:26:10;29.40;;;22.13;;
16304;SDS011;8261;47.678;-122.174;2022-09-12T02:28:59;32.50;;;22.73;;
16304;SDS011;8261;47.678;-122.174;2022-09-12T02:31:44;28.10;;;21.47;;
16304;SDS011;8261;47.678;-122.174;2022-09-12T02:34:26;30.90;;;22.63;;
16304;SDS011;8261;47.678;-122.174;2022-09-12T02:37:19;30.23;;;21.07;;
16304;SDS011;8261;47.678;-122.174;2022-09-12T02:40:03;29.30;;;19.77;;
16304;SDS011;8261;47.678;-122.174;2022-09-12T02:42:46;27.17;;;19.47;;
16304;SDS011;8261;47.678;-122.174;2022-09-12T02:45:21;26.33;;;19.20;;
16304;SDS011;8261;47.678;-122.174;2022-09-12T02:48:15;32.57;;;20.37;;
16304;SDS011;8261;47.678;-122.174;2022-09-12T02:51:19;29.07;;;20.43;;
16304;SDS011;8261;47.678;-122.174;2022-09-12T02:53:52;39.40;;;20.27;;
16304;SDS011;8261;47.678;-122.174;2022-09-12T02:56:32;35.47;;;19.93;;
16304;SDS011;8261;47.678;-122.174;2022-09-12T02:59:18;29.80;;;19.10;;
16304;SDS011;8261;47.678;-122.174;2022-09-12T03:04:54;27.80;;;20.63;;
16304;SDS011;8261;47.678;-122.174;2022-09-12T03:07:44;29.17;;;20.00;;
16304;SDS011;8261;47.678;-122.174;2022-09-12T03:11:07;27.03;;;19.27;;
16304;SDS011;8261;47.678;-122.174;2022-09-12T03:14:16;29.27;;;20.20;;
16304;SDS011;8261;47.678;-122.174;2022-09-12T03:17:01;26.80;;;19.57;;
16304;SDS011;8261;47.678;-122.174;2022-09-12T03:19:52;30.13;;;19.83;;
16304;SDS011;8261;47.678;-122.174;2022-09-12T03:22:42;29.17;;;19.03;;
16304;SDS011;8261;47.678;-122.174;2022-09-12T03:25:22;27.47;;;18.10;;
16304;SDS011;8261;47.678;-122.174;2022-09-12T03:28:17;27.57;;;18.50;;
16304;SDS011;8261;47.678;-122.174;2022-09-12T03:30:55;23.87;;;18.30;;
16304;SDS011;8261;47.678;-122.174;2022-09-12T03:33:31;23.27;;;17.73;;
16304;SDS011;8261;47.678;-122.174;2022-09-12T03:36:07;26.90;;;18.70;;
16304;SDS011;8261;47.678;-122.174;2022-09-12T03:39:00;27.37;;;17.53;;
16304;SDS011;8261;47.678;-122.174;2022-09-12T03:41:36;30.10;;;18.30;;
16304;SDS011;8261;47.678;-122.174;2022-09-12T03:44:19;26.87;;;17.93;;
16304;SDS011;8261;47.678;-122.174;2022-09-12T03:47:04;25.17;;;18.17;;
16304;SDS011;8261;47.678;-122.174;2022-09-12T03:49:37;27.87;;;18.17;;
16304;SDS011;8261;47.678;-122.174;2022-09-12T03:52:09;25.37;;;17.47;;
16304;SDS011;8261;47.678;-122.174;2022-09-12T03:54:40;30.03;;;19.13;;
16304;SDS011;8261;47.678;-122.174;2022-09-12T03:57:12;34.20;;;19.80;;
16304;SDS011;8261;47.678;-122.174;2022-09-12T03:59:46;28.23;;;18.70;;
16304;SDS011;8261;47.678;-122.174;2022-09-12T04:02:18;28.33;;;18.03;;
16304;SDS011;8261;47.678;-122.174;2022-09-12T04:04:49;26.60;;;17.47;;
16304;SDS011;8261;47.678;-122.174;2022-09-12T04:07:21;23.87;;;17.17;;
16304;SDS011;8261;47.678;-122.174;2022-09-12T04:09:52;28.67;;;16.63;;
16304;SDS011;8261;47.678;-122.174;2022-09-12T04:12:24;26.37;;;16.07;;
16304;SDS011;8261;47.678;-122.174;2022-09-12T04:14:57;24.90;;;16.80;;
16304;SDS011;8261;47.678;-122.174;2022-09-12T04:17:31;22.70;;;15.40;;
16304;SDS011;8261;47.678;-122.174;2022-09-12T04:20:03;23.23;;;15.77;;
16304;SDS011;8261;47.678;-122.174;2022-09-12T04:22:35;27.83;;;15.57;;
16304;SDS011;8261;47.678;-122.174;2022-09-12T04:25:07;28.47;;;16.03;;
16304;SDS011;8261;47.678;-122.174;2022-09-12T04:27:38;26.23;;;15.30;;
16304;SDS011;8261;47.678;-122.174;2022-09-12T04:30:14;28.57;;;15.97;;
16304;SDS011;8261;47.678;-122.174;2022-09-12T04:32:45;23.80;;;15.00;;
16304;SDS011;8261;47.678;-122.174;2022-09-12T04:35:21;22.90;;;14.80;;
16304;SDS011;8261;47.678;-122.174;2022-09-12T04:37:54;25.43;;;14.87;;
16304;SDS011;8261;47.678;-122.174;2022-09-12T04:40:25;26.43;;;14.67;;
16304;SDS011;8261;47.678;-122.174;2022-09-12T04:42:59;23.40;;;14.30;;
16304;SDS011;8261;47.678;-122.174;2022-09-12T04:45:32;23.73;;;13.50;;
16304;SDS011;8261;47.678;-122.174;2022-09-12T04:48:04;25.07;;;15.23;;
16304;SDS011;8261;47.678;-122.174;2022-09-12T04:50:36;28.60;;;14.63;;
16304;SDS011;8261;47.678;-122.174;2022-09-12T04:53:07;23.63;;;13.50;;
16304;SDS011;8261;47.678;-122.174;2022-09-12T04:55:38;19.20;;;13.97;;
16304;SDS011;8261;47.678;-122.174;2022-09-12T04:58:09;24.87;;;14.97;;
16304;SDS011;8261;47.678;-122.174;2022-09-12T05:00:44;24.30;;;13.47;;
16304;SDS011;8261;47.678;-122.174;2022-09-12T05:03:15;31.00;;;15.20;;
16304;SDS011;8261;47.678;-122.174;2022-09-12T05:05:48;23.87;;;14.20;;
16304;SDS011;8261;47.678;-122.174;2022-09-12T05:08:22;20.53;;;13.60;;
16304;SDS011;8261;47.678;-122.174;2022-09-12T05:10:54;27.90;;;14.33;;
16304;SDS011;8261;47.678;-122.174;2022-09-12T05:13:29;24.37;;;13.17;;
16304;SDS011;8261;47.678;-122.174;2022-09-12T05:16:03;25.80;;;13.93;;
16304;SDS011;8261;47.678;-122.174;2022-09-12T05:18:36;20.90;;;13.10;;
16304;SDS011;8261;47.678;-122.174;2022-09-12T05:21:10;26.07;;;13.13;;
16304;SDS011;8261;47.678;-122.174;2022-09-12T05:23:42;27.90;;;14.57;;
16304;SDS011;8261;47.678;-122.174;2022-09-12T05:26:14;24.33;;;13.00;;
16304;SDS011;8261;47.678;-122.174;2022-09-12T05:28:47;24.50;;;13.00;;
16304;SDS011;8261;47.678;-122.174;2022-09-12T05:31:22;23.20;;;13.00;;
16304;SDS011;8261;47.678;-122.174;2022-09-12T05:33:54;24.70;;;13.03;;
16304;SDS011;8261;47.678;-122.174;2022-09-12T05:36:26;28.70;;;12.80;;
16304;SDS011;8261;47.678;-122.174;2022-09-12T05:38:59;21.10;;;11.83;;
16304;SDS011;8261;47.678;-122.174;2022-09-12T05:41:31;27.10;;;13.27;;
16304;SDS011;8261;47.678;-122.174;2022-09-12T05:44:03;23.03;;;13.60;;
16304;SDS011;8261;47.678;-122.174;2022-09-12T05:46:37;27.20;;;13.67;;
16304;SDS011;8261;47.678;-122.174;2022-09-12T05:49:17;28.67;;;13.07;;
16304;SDS011;8261;47.678;-122.174;2022-09-12T05:51:49;24.90;;;13.37;;
16304;SDS011;8261;47.678;-122.174;2022-09-12T05:54:20;25.07;;;13.03;;
16304;SDS011;8261;47.678;-122.174;2022-09-12T05:56:57;25.00;;;13.67;;
16304;SDS011;8261;47.678;-122.174;2022-09-12T05:59:28;29.20;;;14.57;;
16304;SDS011;8261;47.678;-122.174;2022-09-12T06:02:02;27.03;;;13.83;;
16304;SDS011;8261;47.678;-122.174;2022-09-12T06:04:33;22.83;;;13.33;;
16304;SDS011;8261;47.678;-122.174;2022-09-12T06:07:05;26.60;;;13.87;;
16304;SDS011;8261;47.678;-122.174;2022-09-12T06:09:36;23.73;;;13.37;;
16304;SDS011;8261;47.678;-122.174;2022-09-12T06:12:08;23.93;;;13.77;;
16304;SDS011;8261;47.678;-122.174;2022-09-12T06:14:40;23.43;;;13.27;;
16304;SDS011;8261;47.678;-122.174;2022-09-12T06:17:14;27.33;;;13.43;;
16304;SDS011;8261;47.678;-122.174;2022-09-12T06:19:46;28.33;;;13.73;;
16304;SDS011;8261;47.678;-122.174;2022-09-12T06:22:17;24.27;;;13.00;;
16304;SDS011;8261;47.678;-122.174;2022-09-12T06:24:48;26.90;;;13.37;;
16304;SDS011;8261;47.678;-122.174;2022-09-12T06:27:36;24.40;;;13.73;;
16304;SDS011;8261;47.678;-122.174;2022-09-12T06:30:08;24.27;;;12.83;;
16304;SDS011;8261;47.678;-122.174;2022-09-12T06:32:43;24.37;;;13.30;;
16304;SDS011;8261;47.678;-122.174;2022-09-12T06:35:16;26.50;;;14.13;;
16304;SDS011;8261;47.678;-122.174;2022-09-12T06:37:48;26.23;;;13.60;;
16304;SDS011;8261;47.678;-122.174;2022-09-12T06:40:22;26.70;;;13.63;;
16304;SDS011;8261;47.678;-122.174;2022-09-12T06:42:54;26.87;;;12.63;;
16304;SDS011;8261;47.678;-122.174;2022-09-12T06:45:26;27.03;;;12.67;;
16304;SDS011;8261;47.678;-122.174;2022-09-12T06:47:59;25.90;;;12.77;;
16304;SDS011;8261;47.678;-122.174;2022-09-12T06:50:30;26.80;;;12.97;;
16304;SDS011;8261;47.678;-122.174;2022-09-12T06:53:02;25.10;;;13.87;;
16304;SDS011;8261;47.678;-122.174;2022-09-12T06:56:01;28.83;;;12.10;;
16304;SDS011;8261;47.678;-122.174;2022-09-12T06:58:34;20.43;;;12.30;;
16304;SDS011;8261;47.678;-122.174;2022-09-12T07:01:07;24.63;;;12.23;;
16304;SDS011;8261;47.678;-122.174;2022-09-12T07:03:42;25.23;;;13.27;;
16304;SDS011;8261;47.678;-122.174;2022-09-12T07:06:18;27.53;;;13.17;;
16304;SDS011;8261;47.678;-122.174;2022-09-12T07:08:50;24.43;;;13.30;;
16304;SDS011;8261;47.678;-122.174;2022-09-12T07:11:24;28.80;;;12.93;;
16304;SDS011;8261;47.678;-122.174;2022-09-12T07:13:57;23.77;;;12.60;;
16304;SDS011;8261;47.678;-122.174;2022-09-12T07:16:29;25.23;;;12.47;;
16304;SDS011;8261;47.678;-122.174;2022-09-12T07:19:03;26.27;;;13.27;;
16304;SDS011;8261;47.678;-122.174;2022-09-12T07:21:36;27.07;;;12.77;;
16304;SDS011;8261;47.678;-122.174;2022-09-12T07:24:09;20.17;;;11.87;;
16304;SDS011;8261;47.678;-122.174;2022-09-12T07:26:40;22.83;;;11.93;;
16304;SDS011;8261;47.678;-122.174;2022-09-12T07:29:12;23.10;;;12.80;;
16304;SDS011;8261;47.678;-122.174;2022-09-12T07:32:03;25.90;;;12.37;;
16304;SDS011;8261;47.678;-122.174;2022-09-12T07:34:37;25.17;;;13.00;;
16304;SDS011;8261;47.678;-122.174;2022-09-12T07:37:09;24.83;;;12.93;;
16304;SDS011;8261;47.678;-122.174;2022-09-12T07:39:41;25.17;;;12.23;;
16304;SDS011;8261;47.678;-122.174;2022-09-12T07:42:12;25.90;;;12.73;;
16304;SDS011;8261;47.678;-122.174;2022-09-12T07:44:44;21.57;;;12.80;;
16304;SDS011;8261;47.678;-122.174;2022-09-12T07:47:15;24.47;;;12.27;;
16304;SDS011;8261;47.678;-122.174;2022-09-12T07:49:49;24.70;;;12.43;;
16304;SDS011;8261;47.678;-122.174;2022-09-12T07:52:21;23.17;;;12.30;;
16304;SDS011;8261;47.678;-122.174;2022-09-12T07:54:52;23.03;;;12.53;;
16304;SDS011;8261;47.678;-122.174;2022-09-12T07:57:23;25.83;;;12.63;;
16304;SDS011;8261;47.678;-122.174;2022-09-12T07:59:54;26.27;;;12.70;;
16304;SDS011;8261;47.678;-122.174;2022-09-12T08:02:25;27.87;;;13.43;;
16304;SDS011;8261;47.678;-122.174;2022-09-12T08:05:01;27.97;;;13.10;;
16304;SDS011;8261;47.678;-122.174;2022-09-12T08:07:32;27.33;;;13.43;;
16304;SDS011;8261;47.678;-122.174;2022-09-12T08:10:04;23.87;;;13.00;;
16304;SDS011;8261;47.678;-122.174;2022-09-12T08:12:37;29.13;;;13.43;;
16304;SDS011;8261;47.678;-122.174;2022-09-12T08:15:09;23.97;;;12.93;;
16304;SDS011;8261;47.678;-122.174;2022-09-12T08:17:40;23.87;;;12.77;;
16304;SDS011;8261;47.678;-122.174;2022-09-12T08:20:14;26.07;;;14.20;;
16304;SDS011;8261;47.678;-122.174;2022-09-12T08:22:46;22.43;;;12.50;;
16304;SDS011;8261;47.678;-122.174;2022-09-12T08:25:17;25.67;;;12.83;;
16304;SDS011;8261;47.678;-122.174;2022-09-12T08:27:48;25.80;;;12.73;;
16304;SDS011;8261;47.678;-122.174;2022-09-12T08:30:19;26.90;;;13.23;;
16304;SDS011;8261;47.678;-122.174;2022-09-12T08:32:51;25.97;;;13.50;;
16304;SDS011;8261;47.678;-122.174;2022-09-12T08:35:25;23.97;;;12.50;;
16304;SDS011;8261;47.678;-122.174;2022-09-12T08:37:57;25.93;;;13.03;;
16304;SDS011;8261;47.678;-122.174;2022-09-12T08:40:28;28.80;;;13.87;;
16304;SDS011;8261;47.678;-122.174;2022-09-12T08:43:02;22.27;;;12.20;;
16304;SDS011;8261;47.678;-122.174;2022-09-12T08:45:45;25.63;;;13.07;;
16304;SDS011;8261;47.678;-122.174;2022-09-12T08:48:23;24.33;;;13.60;;
16304;SDS011;8261;47.678;-122.174;2022-09-12T08:50:56;24.43;;;13.30;;
16304;SDS011;8261;47.678;-122.174;2022-09-12T08:53:29;23.03;;;12.73;;
16304;SDS011;8261;47.678;-122.174;2022-09-12T08:56:03;22.87;;;13.10;;
16304;SDS011;8261;47.678;-122.174;2022-09-12T08:58:39;22.40;;;13.30;;
16304;SDS011;8261;47.678;-122.174;2022-09-12T09:01:13;27.73;;;13.07;;
16304;SDS011;8261;47.678;-122.174;2022-09-12T09:04:00;22.03;;;12.67;;
16304;SDS011;8261;47.678;-122.174;2022-09-12T09:07:17;24.80;;;12.90;;
16304;SDS011;8261;47.678;-122.174;2022-09-12T09:10:07;27.90;;;13.37;;
16304;SDS011;8261;47.678;-122.174;2022-09-12T09:12:48;25.27;;;13.40;;
16304;SDS011;8261;47.678;-122.174;2022-09-12T09:15:32;25.93;;;13.60;;
16304;SDS011;8261;47.678;-122.174;2022-09-12T09:18:14;23.63;;;13.33;;
16304;SDS011;8261;47.678;-122.174;2022-09-12T09:20:51;26.27;;;12.77;;
16304;SDS011;8261;47.678;-122.174;2022-09-12T09:23:27;24.70;;;12.80;;
16304;SDS011;8261;47.678;-122.174;2022-09-12T09:26:01;29.00;;;12.93;;
16304;SDS011;8261;47.678;-122.174;2022-09-12T09:28:37;25.13;;;13.73;;
16304;SDS011;8261;47.678;-122.174;2022-09-12T09:31:14;28.70;;;13.33;;
16304;SDS011;8261;47.678;-122.174;2022-09-12T09:33:46;23.70;;;12.77;;
16304;SDS011;8261;47.678;-122.174;2022-09-12T09:36:21;27.53;;;12.77;;
16304;SDS011;8261;47.678;-122.174;2022-09-12T09:39:10;28.93;;;14.13;;
16304;SDS011;8261;47.678;-122.174;2022-09-12T09:41:49;22.03;;;13.30;;
16304;SDS011;8261;47.678;-122.174;2022-09-12T09:44:31;22.47;;;13.30;;
16304;SDS011;8261;47.678;-122.174;2022-09-12T09:47:03;31.17;;;13.97;;
16304;SDS011;8261;47.678;-122.174;2022-09-12T09:49:34;27.97;;;14.37;;
16304;SDS011;8261;47.678;-122.174;2022-09-12T09:52:07;27.90;;;13.90;;
16304;SDS011;8261;47.678;-122.174;2022-09-12T09:54:44;27.10;;;14.47;;
16304;SDS011;8261;47.678;-122.174;2022-09-12T09:57:41;24.80;;;13.30;;
16304;SDS011;8261;47.678;-122.174;2022-09-12T10:00:24;23.97;;;13.83;;
16304;SDS011;8261;47.678;-122.174;2022-09-12T10:05:59;31.60;;;15.43;;
16304;SDS011;8261;47.678;-122.174;2022-09-12T10:08:32;27.73;;;15.13;;
16304;SDS011;8261;47.678;-122.174;2022-09-12T10:11:19;28.17;;;15.23;;
16304;SDS011;8261;47.678;-122.174;2022-09-12T10:13:54;31.10;;;14.93;;
16304;SDS011;8261;47.678;-122.174;2022-09-12T10:16:28;32.13;;;15.00;;
16304;SDS011;8261;47.678;-122.174;2022-09-12T10:19:00;29.17;;;15.47;;
16304;SDS011;8261;47.678;-122.174;2022-09-12T10:21:32;31.73;;;15.57;;
16304;SDS011;8261;47.678;-122.174;2022-09-12T10:24:14;28.20;;;15.67;;
16304;SDS011;8261;47.678;-122.174;2022-09-12T10:29:44;31.80;;;15.87;;
16304;SDS011;8261;47.678;-122.174;2022-09-12T10:32:19;26.10;;;15.07;;
16304;SDS011;8261;47.678;-122.174;2022-09-12T10:34:57;27.70;;;15.43;;
16304;SDS011;8261;47.678;-122.174;2022-09-12T10:37:31;31.20;;;16.80;;
16304;SDS011;8261;47.678;-122.174;2022-09-12T10:40:06;29.13;;;16.53;;
16304;SDS011;8261;47.678;-122.174;2022-09-12T10:42:53;33.00;;;16.17;;
16304;SDS011;8261;47.678;-122.174;2022-09-12T10:45:27;29.17;;;15.83;;
16304;SDS011;8261;47.678;-122.174;2022-09-12T10:48:00;25.30;;;15.40;;
16304;SDS011;8261;47.678;-122.174;2022-09-12T10:50:50;30.60;;;15.77;;
16304;SDS011;8261;47.678;-122.174;2022-09-12T10:53:23;34.67;;;16.20;;
16304;SDS011;8261;47.678;-122.174;2022-09-12T10:56:04;29.40;;;16.33;;
16304;SDS011;8261;47.678;-122.174;2022-09-12T10:58:46;28.63;;;16.30;;
16304;SDS011;8261;47.678;-122.174;2022-09-12T11:01:44;26.47;;;16.23;;
16304;SDS011;8261;47.678;-122.174;2022-09-12T11:04:26;26.63;;;16.77;;
16304;SDS011;8261;47.678;-122.174;2022-09-12T11:07:19;31.77;;;16.33;;
16304;SDS011;8261;47.678;-122.174;2022-09-12T11:10:08;27.33;;;16.20;;
16304;SDS011;8261;47.678;-122.174;2022-09-12T11:12:52;32.47;;;17.70;;
16304;SDS011;8261;47.678;-122.174;2022-09-12T11:18:49;31.10;;;16.67;;
16304;SDS011;8261;47.678;-122.174;2022-09-12T11:21:33;30.03;;;16.90;;
16304;SDS011;8261;47.678;-122.174;2022-09-12T11:24:31;27.10;;;17.20;;
16304;SDS011;8261;47.678;-122.174;2022-09-12T11:27:24;32.60;;;17.77;;
16304;SDS011;8261;47.678;-122.174;2022-09-12T11:30:06;28.63;;;16.73;;
16304;SDS011;8261;47.678;-122.174;2022-09-12T11:32:42;32.17;;;16.83;;
16304;SDS011;8261;47.678;-122.174;2022-09-12T11:35:36;31.83;;;16.90;;
16304;SDS011;8261;47.678;-122.174;2022-09-12T11:38:28;31.00;;;17.33;;
16304;SDS011;8261;47.678;-122.174;2022-09-12T11:41:16;27.57;;;16.80;;
16304;SDS011;8261;47.678;-122.174;2022-09-12T11:43:54;26.70;;;16.20;;
16304;SDS011;8261;47.678;-122.174;2022-09-12T11:46:30;28.13;;;16.33;;
16304;SDS011;8261;47.678;-122.174;2022-09-12T11:49:09;27.13;;;17.07;;
16304;SDS011;8261;47.678;-122.174;2022-09-12T11:51:51;30.70;;;17.50;;
16304;SDS011;8261;47.678;-122.174;2022-09-12T11:54:28;23.60;;;16.40;;
16304;SDS011;8261;47.678;-122.174;2022-09-12T11:57:07;23.77;;;16.50;;
16304;SDS011;8261;47.678;-122.174;2022-09-12T11:59:47;29.10;;;16.90;;
16304;SDS011;8261;47.678;-122.174;2022-09-12T12:02:24;30.27;;;17.87;;
16304;SDS011;8261;47.678;-122.174;2022-09-12T12:05:05;28.10;;;16.47;;
16304;SDS011;8261;47.678;-122.174;2022-09-12T12:07:52;30.90;;;18.10;;
16304;SDS011;8261;47.678;-122.174;2022-09-12T12:10:25;24.77;;;15.83;;
16304;SDS011;8261;47.678;-122.174;2022-09-12T12:13:03;34.53;;;17.43;;
16304;SDS011;8261;47.678;-122.174;2022-09-12T12:15:40;34.80;;;17.13;;
16304;SDS011;8261;47.678;-122.174;2022-09-12T12:18:17;33.90;;;16.93;;
16304;SDS011;8261;47.678;-122.174;2022-09-12T12:20:51;31.60;;;17.80;;
16304;SDS011;8261;47.678;-122.174;2022-09-12T12:23:28;28.87;;;17.50;;
16304;SDS011;8261;47.678;-122.174;2022-09-12T12:26:02;28.37;;;17.83;;
16304;SDS011;8261;47.678;-122.174;2022-09-12T12:31:31;39.67;;;18.13;;
16304;SDS011;8261;47.678;-122.174;2022-09-12T12:34:40;28.40;;;18.03;;
16304;SDS011;8261;47.678;-122.174;2022-09-12T12:40:22;29.80;;;17.50;;
16304;SDS011;8261;47.678;-122.174;2022-09-12T12:43:02;27.93;;;17.03;;
16304;SDS011;8261;47.678;-122.174;2022-09-12T12:46:00;27.10;;;17.10;;
16304;SDS011;8261;47.678;-122.174;2022-09-12T12:48:47;33.10;;;17.97;;
16304;SDS011;8261;47.678;-122.174;2022-09-12T12:57:29;34.27;;;19.23;;
16304;SDS011;8261;47.678;-122.174;2022-09-12T13:00:06;32.20;;;17.60;;
16304;SDS011;8261;47.678;-122.174;2022-09-12T13:02:55;32.20;;;18.07;;
16304;SDS011;8261;47.678;-122.174;2022-09-12T13:05:29;33.43;;;18.50;;
16304;SDS011;8261;47.678;-122.174;2022-09-12T13:08:08;29.07;;;18.20;;
16304;SDS011;8261;47.678;-122.174;2022-09-12T13:10:51;33.43;;;19.07;;
16304;SDS011;8261;47.678;-122.174;2022-09-12T13:13:27;29.23;;;18.10;;
16304;SDS011;8261;47.678;-122.174;2022-09-12T13:16:02;28.83;;;17.30;;
16304;SDS011;8261;47.678;-122.174;2022-09-12T13:18:38;32.03;;;18.10;;
16304;SDS011;8261;47.678;-122.174;2022-09-12T13:21:13;34.77;;;18.07;;
16304;SDS011;8261;47.678;-122.174;2022-09-12T13:23:45;28.93;;;18.73;;
16304;SDS011;8261;47.678;-122.174;2022-09-12T13:26:33;30.10;;;18.93;;
16304;SDS011;8261;47.678;-122.174;2022-09-12T13:29:13;36.53;;;19.47;;
16304;SDS011;8261;47.678;-122.174;2022-09-12T13:31:46;31.23;;;17.90;;
16304;SDS011;8261;47.678;-122.174;2022-09-12T13:34:21;34.33;;;19.27;;
16304;SDS011;8261;47.678;-122.174;2022-09-12T13:37:10;27.80;;;18.47;;
16304;SDS011;8261;47.678;-122.174;2022-09-12T13:39:55;31.67;;;18.87;;
16304;SDS011;8261;47.678;-122.174;2022-09-12T13:42:38;34.10;;;19.10;;
16304;SDS011;8261;47.678;-122.174;2022-09-12T13:45:14;34.97;;;20.07;;
16304;SDS011;8261;47.678;-122.174;2022-09-12T13:47:50;34.23;;;20.23;;
16304;SDS011;8261;47.678;-122.174;2022-09-12T13:50:25;28.30;;;18.23;;
16304;SDS011;8261;47.678;-122.174;2022-09-12T13:52:58;36.07;;;20.17;;
16304;SDS011;8261;47.678;-122.174;2022-09-12T13:55:31;35.20;;;19.47;;
16304;SDS011;8261;47.678;-122.174;2022-09-12T13:58:05;34.10;;;20.57;;
16304;SDS011;8261;47.678;-122.174;2022-09-12T14:01:04;32.60;;;19.53;;
16304;SDS011;8261;47.678;-122.174;2022-09-12T14:03:38;35.50;;;19.17;;
16304;SDS011;8261;47.678;-122.174;2022-09-12T14:06:27;40.67;;;20.13;;
16304;SDS011;8261;47.678;-122.174;2022-09-12T14:09:13;36.23;;;19.67;;
16304;SDS011;8261;47.678;-122.174;2022-09-12T14:11:51;33.17;;;19.00;;
16304;SDS011;8261;47.678;-122.174;2022-09-12T14:14:24;33.70;;;20.43;;
16304;SDS011;8261;47.678;-122.174;2022-09-12T14:17:21;42.13;;;21.60;;
16304;SDS011;8261;47.678;-122.174;2022-09-12T14:19:56;35.27;;;19.97;;
16304;SDS011;8261;47.678;-122.174;2022-09-12T14:22:58;36.77;;;20.67;;
16304;SDS011;8261;47.678;-122.174;2022-09-12T14:25:34;37.53;;;20.33;;
16304;SDS011;8261;47.678;-122.174;2022-09-12T14:28:16;38.83;;;20.63;;
16304;SDS011;8261;47.678;-122.174;2022-09-12T14:31:00;44.60;;;20.70;;
16304;SDS011;8261;47.678;-122.174;2022-09-12T14:36:50;40.23;;;21.07;;
16304;SDS011;8261;47.678;-122.174;2022-09-12T14:39:27;39.47;;;21.00;;
16304;SDS011;8261;47.678;-122.174;2022-09-12T14:47:32;35.50;;;20.17;;
16304;SDS011;8261;47.678;-122.174;2022-09-12T14:50:20;39.70;;;20.17;;
16304;SDS011;8261;47.678;-122.174;2022-09-12T14:53:01;33.90;;;19.37;;
16304;SDS011;8261;47.678;-122.174;2022-09-12T14:55:40;38.03;;;22.03;;
16304;SDS011;8261;47.678;-122.174;2022-09-12T14:58:41;38.70;;;21.40;;
16304;SDS011;8261;47.678;-122.174;2022-09-12T15:01:22;40.77;;;20.63;;
16304;SDS011;8261;47.678;-122.174;2022-09-12T15:07:18;36.53;;;18.70;;
16304;SDS011;8261;47.678;-122.174;2022-09-12T15:10:13;33.13;;;19.13;;
16304;SDS011;8261;47.678;-122.174;2022-09-12T15:12:50;31.57;;;18.50;;
16304;SDS011;8261;47.678;-122.174;2022-09-12T15:15:52;42.43;;;21.00;;
16304;SDS011;8261;47.678;-122.174;2022-09-12T15:18:28;30.43;;;20.07;;
16304;SDS011;8261;47.678;-122.174;2022-09-12T15:21:15;34.37;;;19.23;;
16304;SDS011;8261;47.678;-122.174;2022-09-12T15:23:50;35.27;;;19.50;;
16304;SDS011;8261;47.678;-122.174;2022-09-12T15:26:22;30.83;;;18.27;;
16304;SDS011;8261;47.678;-122.174;2022-09-12T15:28:58;33.87;;;18.20;;
16304;SDS011;8261;47.678;-122.174;2022-09-12T15:31:30;33.20;;;19.10;;
16304;SDS011;8261;47.678;-122.174;2022-09-12T15:34:02;32.00;;;19.37;;
16304;SDS011;8261;47.678;-122.174;2022-09-12T15:36:33;36.70;;;19.23;;
16304;SDS011;8261;47.678;-122.174;2022-09-12T15:39:07;30.23;;;17.90;;
16304;SDS011;8261;47.678;-122.174;2022-09-12T15:41:40;31.97;;;18.27;;
16304;SDS011;8261;47.678;-122.174;2022-09-12T15:44:11;39.23;;;19.83;;
16304;SDS011;8261;47.678;-122.174;2022-09-12T15:46:56;37.40;;;19.33;;
16304;SDS011;8261;47.678;-122.174;2022-09-12T15:49:28;32.03;;;17.63;;
16304;SDS011;8261;47.678;-122.174;2022-09-12T15:51:59;31.10;;;18.30;;